»·PEaware :: N799DS KPSP-KRAL

N799DS :: KPSP-KRAL

FLIGHT INFORMATION

Flight Status: Arrived
Operator: Privately registered:
United States
More flights under this callsign
Pilot: Wolfgang B. (15069)
Aircraft: CESSNA 172 SKYHAWK
(C172)
More flights by this aircraft type
Origin: KPSP Palm Springs Intl
United States
Destination: KRAL Riverside Mun
United States
More flights between these airports :: More routes between these airports
Route: +CATH1 PSP V388 PDZ
File this flight plan on PilotEdge
Remarks:
Altitude:
(Current/Filed)
10,000ft
Speed:
(Current/Filed)
115kts
Departed: 30-Apr-17 06:46 PM
Arrived: 30-Apr-17 07:34 PM
Distance/Time
Traveled:
47nm/0:48
Distance/Time
To Go:
Arrived

Flight Plot

Page will automatically refresh every two minutes.


Map Options




Map Legend


Flown Route
Filed Route
Departure Airport
Arrival Airport
Navaid (VOR, NDB)
Fix

Horizontal Profiles

Position Reports

Time Latitude Longitude Heading Altitude Ground
Speed
30-Apr-17 18:25 33.825088 -116.509404 358 419ft 0kts
30-Apr-17 18:26 33.825088 -116.509404 358 419ft 0kts
30-Apr-17 18:27 33.825088 -116.509404 358 419ft 0kts
30-Apr-17 18:28 33.825088 -116.509404 358 419ft 0kts
30-Apr-17 18:29 33.825088 -116.509404 358 419ft 0kts
30-Apr-17 18:30 33.825088 -116.509404 358 419ft 0kts
30-Apr-17 18:31 33.825088 -116.509404 358 419ft 0kts
30-Apr-17 18:32 33.825088 -116.509404 358 419ft 0kts
30-Apr-17 18:33 33.825088 -116.509404 358 419ft 0kts
30-Apr-17 18:34 33.825088 -116.509404 358 419ft 0kts
30-Apr-17 18:35 33.825088 -116.509404 358 419ft 0kts
30-Apr-17 18:36 33.825088 -116.509404 358 419ft 0kts
30-Apr-17 18:37 33.825088 -116.509404 358 419ft 0kts
30-Apr-17 18:38 33.825088 -116.509404 358 419ft 0kts
30-Apr-17 18:39 33.825088 -116.509404 358 419ft 0kts
30-Apr-17 18:40 33.825456 -116.507835 46 417ft 6kts
30-Apr-17 18:41 33.829293 -116.509471 319 428ft 19kts
30-Apr-17 18:42 33.833792 -116.513508 319 445ft 19kts
30-Apr-17 18:43 33.838091 -116.516800 323 464ft 19kts
30-Apr-17 18:44 33.839665 -116.517653 16 469ft 0kts
30-Apr-17 18:45 33.839665 -116.517653 16 469ft 0kts
30-Apr-17 18:46 33.839665 -116.517653 16 469ft 0kts
30-Apr-17 18:47 33.839938 -116.517467 39 469ft 8kts
30-Apr-17 18:48 33.834585 -116.512037 142 551ft 71kts
30-Apr-17 18:49 33.824430 -116.493712 112 1473ft 65kts
30-Apr-17 18:50 33.817384 -116.472491 112 2272ft 69kts
30-Apr-17 18:51 33.810810 -116.451051 114 3046ft 70kts
30-Apr-17 18:52 33.814600 -116.430037 54 3773ft 81kts
30-Apr-17 18:53 33.830110 -116.410863 50 4492ft 80kts
30-Apr-17 18:54 33.846522 -116.391452 53 5138ft 84kts
30-Apr-17 18:55 33.847990 -116.369846 131 5745ft 74kts
30-Apr-17 18:56 33.837529 -116.349454 128 6416ft 72kts
30-Apr-17 18:57 33.827078 -116.328034 125 7015ft 77kts
30-Apr-17 18:58 33.817473 -116.304970 122 7611ft 79kts
30-Apr-17 18:59 33.808942 -116.280277 94 8149ft 90kts
30-Apr-17 19:00 33.824489 -116.285829 288 8651ft 86kts
30-Apr-17 19:01 33.832845 -116.311015 280 9209ft 79kts
30-Apr-17 19:02 33.838489 -116.332240 277 9621ft 79kts
30-Apr-17 19:03 33.847980 -116.362460 283 10012ft 97kts
30-Apr-17 19:04 33.858847 -116.395455 284 10007ft 117kts
30-Apr-17 19:05 33.870363 -116.432277 279 10007ft 120kts
30-Apr-17 19:06 33.879993 -116.469480 280 10006ft 120kts
30-Apr-17 19:07 33.889810 -116.507874 279 9998ft 122kts
30-Apr-17 19:08 33.899780 -116.547085 279 9997ft 123kts
30-Apr-17 19:09 33.909581 -116.585636 279 9996ft 118kts
30-Apr-17 19:10 33.919134 -116.623325 279 9997ft 117kts
30-Apr-17 19:11 33.928382 -116.659875 279 10005ft 117kts
30-Apr-17 19:12 33.936325 -116.691286 279 10019ft 117kts
30-Apr-17 19:13 33.945884 -116.729160 278 10038ft 119kts
30-Apr-17 19:14 33.947214 -116.773044 267 10055ft 109kts
30-Apr-17 19:15 33.946199 -116.809889 265 9980ft 107kts
30-Apr-17 19:16 33.945015 -116.845134 265 9997ft 104kts
30-Apr-17 19:17 33.944069 -116.874136 264 10011ft 104kts
30-Apr-17 19:18 33.940929 -116.908607 258 10016ft 103kts
30-Apr-17 19:19 33.935836 -116.948153 259 9171ft 103kts
30-Apr-17 19:20 33.932056 -116.976093 258 8548ft 100kts
30-Apr-17 19:21 33.926146 -117.008878 258 7767ft 100kts
30-Apr-17 19:22 33.920949 -117.041620 262 7003ft 100kts
30-Apr-17 19:23 33.916167 -117.079786 262 6134ft 100kts
30-Apr-17 19:24 33.912278 -117.107032 263 5524ft 99kts
30-Apr-17 19:25 33.906626 -117.141116 262 5130ft 110kts
30-Apr-17 19:26 33.901608 -117.176954 275 5111ft 103kts
30-Apr-17 19:27 33.906811 -117.212240 280 4154ft 111kts
30-Apr-17 19:28 33.912730 -117.248067 283 4009ft 104kts
30-Apr-17 19:29 33.921123 -117.282409 282 3377ft 104kts
30-Apr-17 19:30 33.927214 -117.312003 281 2862ft 78kts
30-Apr-17 19:31 33.931977 -117.337628 277 2450ft 78kts
30-Apr-17 19:32 33.936981 -117.363194 281 2043ft 79kts
30-Apr-17 19:33 33.941849 -117.388940 279 1608ft 76kts
30-Apr-17 19:34 33.945985 -117.411096 278 1242ft 60kts
30-Apr-17 19:35 33.949713 -117.430292 278 931ft 55kts
30-Apr-17 19:36 33.952179 -117.443230 273 786ft 7kts
30-Apr-17 19:37 33.951323 -117.443699 184 781ft 5kts
30-Apr-17 19:38 33.950663 -117.443717 227 778ft 6kts
30-Apr-17 19:39 33.951041 -117.446150 104 769ft 0kts
30-Apr-17 19:40 33.951041 -117.446150 104 769ft 0kts
30-Apr-17 19:41 33.951041 -117.446150 104 769ft 0kts
30-Apr-17 19:42 33.951041 -117.446150 104 769ft 0kts
30-Apr-17 19:43 33.951041 -117.446150 104 769ft 0kts
30-Apr-17 19:44 33.951041 -117.446150 104 769ft 0kts
30-Apr-17 19:45 33.951041 -117.446150 104 769ft 0kts
30-Apr-17 19:46 33.951041 -117.446150 104 769ft 0kts
30-Apr-17 19:47 33.951041 -117.446150 104 769ft 0kts
30-Apr-17 19:48 33.951041 -117.446150 104 769ft 0kts
30-Apr-17 19:49 33.951041 -117.446150 104 769ft 0kts
30-Apr-17 19:50 33.951041 -117.446150 104 769ft 0kts

Navigation Log

Ident Type
Flight plan parsing failed, navigation log unavailable